createdAt,value
2023-08-17T00:02:00.171Z,92.20
2023-08-17T00:04:27.046Z,92.20
2023-08-17T00:06:53.973Z,92.20
2023-08-17T00:09:20.903Z,92.20
2023-08-17T00:11:47.781Z,92.20
2023-08-17T00:14:14.699Z,92.20
2023-08-17T00:16:42.698Z,92.20
2023-08-17T00:19:09.611Z,92.20
2023-08-17T00:21:37.207Z,92.20
2023-08-17T00:24:04.503Z,92.20
2023-08-17T00:26:31.460Z,92.20
2023-08-17T00:28:58.320Z,92.20
2023-08-17T00:31:25.258Z,92.20
2023-08-17T00:33:52.070Z,92.20
2023-08-17T00:36:19.048Z,92.20
2023-08-17T00:38:45.902Z,92.20
2023-08-17T00:41:12.872Z,92.20
2023-08-17T00:43:39.818Z,92.20
2023-08-17T00:46:06.840Z,92.20
2023-08-17T00:48:34.634Z,92.20
2023-08-17T00:51:02.351Z,92.20
2023-08-17T00:53:32.522Z,92.20
2023-08-17T00:56:02.342Z,92.20
2023-08-17T00:58:29.896Z,92.20
2023-08-17T01:00:57.234Z,92.20
2023-08-17T01:03:25.547Z,92.20
2023-08-17T01:05:52.519Z,92.20
2023-08-17T01:08:19.604Z,92.20
2023-08-17T01:10:55.912Z,92.20
2023-08-17T01:13:31.499Z,92.20
2023-08-17T01:16:03.925Z,92.20
2023-08-17T01:18:35.682Z,92.20
2023-08-17T01:21:06.461Z,92.20
2023-08-17T01:23:33.421Z,92.20
2023-08-17T01:26:00.436Z,92.20
2023-08-17T01:28:28.175Z,92.20
2023-08-17T01:31:25.616Z,92.20
2023-08-17T01:33:57.933Z,92.20
2023-08-17T01:36:33.349Z,92.20
2023-08-17T01:39:02.923Z,92.20
2023-08-17T01:41:31.142Z,92.20
2023-08-17T01:43:59.085Z,92.20
2023-08-17T01:46:33.522Z,92.20
2023-08-17T01:49:00.547Z,92.20
2023-08-17T01:51:27.604Z,92.20
2023-08-17T01:53:54.604Z,92.20
2023-08-17T01:56:21.491Z,92.20
2023-08-17T01:58:48.433Z,92.20
2023-08-17T02:01:15.317Z,92.20
2023-08-17T02:03:42.236Z,92.20
2023-08-17T02:06:09.209Z,92.20
2023-08-17T02:08:39.046Z,92.20
2023-08-17T02:11:06.028Z,92.20
2023-08-17T02:13:32.931Z,92.20
2023-08-17T02:15:59.784Z,92.20
2023-08-17T02:18:26.581Z,92.20
2023-08-17T02:20:53.377Z,92.20
2023-08-17T02:23:20.217Z,92.20
2023-08-17T02:25:47.197Z,92.20
2023-08-17T02:28:14.073Z,92.20
2023-08-17T02:30:40.936Z,92.20
2023-08-17T02:33:08.141Z,92.20
2023-08-17T02:35:34.953Z,92.20
2023-08-17T02:38:01.916Z,92.20
2023-08-17T02:40:28.737Z,92.20
2023-08-17T02:42:55.610Z,92.20
2023-08-17T02:45:22.428Z,92.20
2023-08-17T02:47:49.265Z,92.20
2023-08-17T02:50:16.170Z,92.20
2023-08-17T02:52:43.990Z,92.20
2023-08-17T02:55:10.783Z,92.20
2023-08-17T02:57:37.679Z,92.20
2023-08-17T03:00:05.059Z,92.20
2023-08-17T03:02:31.969Z,92.20
2023-08-17T03:04:58.865Z,92.20
2023-08-17T03:07:25.938Z,92.20
2023-08-17T03:09:53.125Z,92.20
2023-08-17T03:12:20.192Z,92.20
2023-08-17T03:14:47.254Z,92.20
2023-08-17T03:17:14.274Z,92.20
2023-08-17T03:19:41.623Z,92.20
2023-08-17T03:22:08.467Z,92.20
2023-08-17T03:24:35.357Z,92.20
2023-08-17T03:27:02.254Z,92.20
2023-08-17T03:29:29.269Z,92.20
2023-08-17T03:31:57.139Z,92.20
2023-08-17T03:34:24.119Z,92.20
2023-08-17T03:36:51.490Z,92.20
2023-08-17T03:39:18.423Z,92.20
2023-08-17T03:41:45.231Z,92.20
2023-08-17T03:44:12.062Z,92.20
2023-08-17T03:46:39.192Z,92.20
2023-08-17T03:49:06.199Z,92.20
2023-08-17T03:51:33.079Z,92.20
2023-08-17T03:54:00.122Z,92.20
2023-08-17T03:56:26.995Z,92.20
2023-08-17T03:58:54.554Z,92.20
2023-08-17T04:01:21.504Z,92.20
2023-08-17T04:03:48.352Z,92.20
2023-08-17T04:06:15.240Z,92.20
2023-08-17T04:08:42.421Z,92.20
2023-08-17T04:11:09.356Z,92.20
2023-08-17T04:13:36.173Z,92.20
2023-08-17T04:16:03.107Z,92.20
2023-08-17T04:18:30.155Z,92.20
2023-08-17T04:20:56.986Z,92.20
2023-08-17T04:23:24.065Z,92.20
2023-08-17T04:25:50.834Z,92.20
2023-08-17T04:28:17.707Z,92.20
2023-08-17T04:30:44.702Z,92.20
2023-08-17T04:33:11.584Z,92.20
2023-08-17T04:35:38.435Z,92.20
2023-08-17T04:38:05.999Z,92.20
2023-08-17T04:40:33.234Z,92.20
2023-08-17T04:43:00.162Z,92.20
2023-08-17T04:45:27.225Z,92.20
2023-08-17T04:47:54.190Z,92.20
2023-08-17T04:50:21.140Z,92.20
2023-08-17T04:52:47.995Z,92.20
2023-08-17T04:55:15.599Z,92.20
2023-08-17T04:57:42.407Z,92.20
2023-08-17T05:00:10.700Z,92.20
2023-08-17T05:02:38.653Z,92.20
2023-08-17T05:05:07.557Z,92.20
2023-08-17T05:07:35.166Z,92.20
2023-08-17T05:10:02.206Z,92.20
2023-08-17T05:12:29.373Z,92.20
2023-08-17T05:14:56.234Z,92.20
2023-08-17T05:17:23.099Z,92.20
2023-08-17T05:19:49.960Z,92.20
2023-08-17T05:22:16.903Z,92.20
2023-08-17T05:24:43.775Z,92.20
2023-08-17T05:27:10.908Z,92.20
2023-08-17T05:29:37.772Z,92.20
2023-08-17T05:32:05.142Z,92.20
2023-08-17T05:34:32.075Z,92.20
2023-08-17T05:36:59.090Z,92.20
2023-08-17T05:39:25.905Z,92.20
2023-08-17T05:41:52.869Z,92.20
2023-08-17T05:44:19.789Z,92.20
2023-08-17T05:46:46.713Z,92.20
2023-08-17T05:49:13.723Z,92.20
2023-08-17T05:51:40.720Z,92.20
2023-08-17T05:54:08.357Z,92.20
2023-08-17T05:56:35.316Z,92.20
2023-08-17T05:59:02.393Z,92.20
2023-08-17T06:01:29.257Z,92.20
2023-08-17T06:03:56.407Z,92.20
2023-08-17T06:06:23.342Z,92.20
2023-08-17T06:08:50.129Z,92.20
2023-08-17T06:11:16.996Z,92.20
2023-08-17T06:13:43.972Z,92.20
2023-08-17T06:16:11.678Z,92.20
2023-08-17T06:18:39.188Z,92.20
2023-08-17T06:21:06.062Z,92.20
2023-08-17T06:23:34.228Z,92.20
2023-08-17T06:26:01.667Z,92.20
2023-08-17T06:28:29.382Z,92.20
2023-08-17T06:30:56.836Z,92.20
2023-08-17T06:33:24.389Z,92.20
2023-08-17T06:35:51.350Z,92.20
2023-08-17T06:38:18.382Z,92.20
2023-08-17T06:40:46.764Z,92.20
2023-08-17T06:43:15.223Z,92.20
2023-08-17T06:45:43.326Z,92.20
2023-08-17T06:48:10.305Z,92.20
2023-08-17T06:50:37.314Z,92.20
2023-08-17T06:53:04.343Z,92.20
2023-08-17T06:55:31.162Z,92.20
2023-08-17T06:57:58.604Z,92.20
2023-08-17T07:00:25.732Z,92.20
2023-08-17T07:02:56.102Z,92.20
2023-08-17T07:05:25.124Z,92.20
2023-08-17T07:07:52.195Z,92.20
2023-08-17T07:10:19.082Z,92.20
2023-08-17T07:12:46.181Z,92.20
2023-08-17T07:15:13.984Z,92.20
2023-08-17T07:17:40.935Z,92.20
2023-08-17T07:20:16.333Z,92.20
2023-08-17T07:22:47.825Z,92.20
2023-08-17T07:25:14.940Z,92.20
2023-08-17T07:27:43.636Z,92.20
2023-08-17T07:30:11.085Z,92.20
2023-08-17T07:32:37.966Z,92.20
2023-08-17T07:35:05.241Z,92.20
2023-08-17T07:37:35.237Z,92.20
2023-08-17T07:40:04.899Z,92.20
2023-08-17T07:42:32.320Z,92.20
2023-08-17T07:44:59.529Z,92.20
2023-08-17T07:47:27.006Z,92.20
2023-08-17T07:49:55.807Z,92.20
2023-08-17T07:52:22.634Z,92.20
2023-08-17T07:54:49.539Z,92.20
2023-08-17T07:57:16.484Z,92.20
2023-08-17T07:59:43.331Z,92.20
2023-08-17T08:02:10.190Z,91.30
2023-08-17T08:04:36.987Z,89.50
2023-08-17T08:07:03.881Z,90.70
2023-08-17T08:09:30.697Z,89.90
2023-08-17T08:11:57.536Z,89.90
2023-08-17T08:14:24.398Z,89.70
2023-08-17T08:16:51.572Z,89.90
2023-08-17T08:19:18.350Z,90.80
2023-08-17T08:21:45.143Z,91.60
2023-08-17T08:24:22.159Z,91.60
2023-08-17T08:26:57.875Z,90.90
2023-08-17T08:29:24.769Z,90.00
2023-08-17T08:31:52.050Z,88.50
2023-08-17T08:34:19.110Z,89.50
2023-08-17T08:36:46.164Z,89.30
2023-08-17T08:39:14.591Z,87.80
2023-08-17T08:41:41.879Z,87.70
2023-08-17T08:44:08.716Z,87.50
2023-08-17T08:46:37.639Z,87.50
2023-08-17T08:49:07.492Z,86.90
2023-08-17T08:51:39.079Z,85.80
2023-08-17T08:54:10.943Z,84.50
2023-08-17T08:56:39.979Z,83.00
2023-08-17T08:59:07.194Z,84.70
2023-08-17T09:01:34.655Z,84.80
2023-08-17T09:04:02.299Z,83.90
2023-08-17T09:06:30.692Z,83.70
2023-08-17T09:08:59.380Z,83.70
2023-08-17T09:11:26.239Z,83.60
2023-08-17T09:13:54.662Z,82.70
2023-08-17T09:16:23.767Z,81.70
2023-08-17T09:18:55.098Z,81.60
2023-08-17T09:21:25.322Z,81.70
2023-08-17T09:26:26.510Z,82.60
2023-08-17T09:28:55.392Z,82.50
2023-08-17T09:31:24.277Z,82.40
2023-08-17T09:33:52.128Z,82.70
2023-08-17T09:36:27.756Z,82.80
2023-08-17T09:38:54.744Z,82.20
2023-08-17T09:41:27.536Z,82.10
2023-08-17T09:43:56.323Z,80.40
2023-08-17T09:46:23.263Z,80.20
2023-08-17T09:48:51.450Z,80.70
2023-08-17T09:51:19.150Z,80.50
2023-08-17T09:53:52.458Z,79.80
2023-08-17T09:56:20.282Z,80.00
2023-08-17T09:58:47.100Z,79.40
2023-08-17T10:01:15.230Z,79.00
2023-08-17T10:03:46.299Z,77.90
2023-08-17T10:06:26.672Z,79.40
2023-08-17T10:08:55.870Z,78.90
2023-08-17T10:11:24.402Z,80.40
2023-08-17T10:13:56.961Z,80.70
2023-08-17T10:16:30.373Z,79.80
2023-08-17T10:19:10.202Z,79.50
2023-08-17T10:21:44.837Z,78.60
2023-08-17T10:24:13.008Z,79.00
2023-08-17T10:26:40.577Z,79.40
2023-08-17T10:29:15.433Z,80.00
2023-08-17T10:31:49.052Z,79.60
2023-08-17T10:34:17.217Z,78.30
2023-08-17T10:36:45.510Z,77.50
2023-08-17T10:39:28.998Z,76.30
2023-08-17T10:41:57.948Z,75.50
2023-08-17T10:44:46.604Z,76.00
2023-08-17T10:47:26.950Z,74.80
2023-08-17T10:49:58.913Z,74.30
2023-08-17T10:52:37.300Z,73.80
2023-08-17T10:55:07.632Z,71.90
2023-08-17T10:57:44.821Z,73.90
2023-08-17T11:02:52.650Z,72.60
2023-08-17T11:05:37.111Z,72.40
2023-08-17T11:08:04.691Z,72.60
2023-08-17T11:10:31.963Z,72.00
2023-08-17T11:13:02.604Z,71.00
2023-08-17T11:15:43.240Z,70.30
2023-08-17T11:18:11.403Z,69.70
2023-08-17T11:20:41.168Z,70.50
2023-08-17T11:23:09.089Z,69.20
2023-08-17T11:25:36.566Z,69.50
2023-08-17T11:28:03.825Z,70.80
2023-08-17T11:30:31.010Z,69.80
2023-08-17T11:32:59.067Z,70.20
2023-08-17T11:35:26.016Z,70.30
2023-08-17T11:37:52.857Z,70.00
2023-08-17T11:40:20.319Z,69.30
2023-08-17T11:42:47.906Z,68.90
2023-08-17T11:45:15.105Z,68.90
2023-08-17T11:47:44.496Z,69.80
2023-08-17T11:50:20.583Z,70.30
2023-08-17T11:52:48.869Z,69.20
2023-08-17T11:55:21.889Z,69.10
2023-08-17T11:57:48.838Z,68.00
2023-08-17T12:00:21.314Z,68.30
2023-08-17T12:02:53.295Z,67.10
2023-08-17T12:05:22.077Z,66.70
2023-08-17T12:07:49.000Z,68.10
2023-08-17T12:10:16.189Z,68.90
2023-08-17T12:12:43.312Z,69.40
2023-08-17T12:15:12.951Z,71.10
2023-08-17T12:17:49.068Z,70.60
2023-08-17T12:20:22.447Z,71.30
2023-08-17T12:22:49.277Z,73.50
2023-08-17T12:25:16.756Z,73.40
2023-08-17T12:27:43.850Z,74.20
2023-08-17T12:30:26.749Z,74.70
2023-08-17T12:32:55.168Z,74.20
2023-08-17T12:35:25.188Z,74.50
2023-08-17T12:37:53.281Z,74.20
2023-08-17T12:40:20.628Z,76.20
2023-08-17T12:42:47.575Z,75.70
2023-08-17T12:45:14.974Z,76.10
2023-08-17T12:47:42.086Z,76.40
2023-08-17T12:50:09.642Z,77.30
2023-08-17T12:52:36.649Z,76.60
2023-08-17T12:55:03.914Z,75.90
2023-08-17T12:57:30.744Z,75.50
2023-08-17T12:59:59.285Z,75.10
2023-08-17T13:02:26.512Z,75.90
2023-08-17T13:04:53.755Z,75.80
2023-08-17T13:07:20.757Z,76.30
2023-08-17T13:09:47.934Z,76.20
2023-08-17T13:12:14.936Z,75.40
2023-08-17T13:14:42.306Z,76.80
2023-08-17T13:17:09.537Z,77.40
2023-08-17T13:19:36.664Z,75.00
2023-08-17T13:22:04.091Z,76.10
2023-08-17T13:24:31.078Z,76.40
2023-08-17T13:26:58.680Z,73.50
2023-08-17T13:29:25.738Z,73.70
2023-08-17T13:31:53.105Z,73.40
2023-08-17T13:34:19.980Z,73.30
2023-08-17T13:36:46.889Z,74.00
2023-08-17T13:39:13.765Z,74.60
2023-08-17T13:41:41.712Z,73.30
2023-08-17T13:44:08.658Z,74.70
2023-08-17T13:46:35.679Z,75.00
2023-08-17T13:49:02.699Z,74.80
2023-08-17T13:51:29.514Z,77.30
2023-08-17T13:53:56.483Z,79.70
2023-08-17T13:56:23.344Z,79.50
2023-08-17T13:58:50.200Z,80.00
2023-08-17T14:01:18.346Z,84.30
2023-08-17T14:03:45.799Z,88.10
2023-08-17T14:06:13.613Z,92.00
2023-08-17T14:08:40.576Z,92.20
2023-08-17T14:11:09.611Z,92.20
2023-08-17T14:13:37.503Z,92.20
2023-08-17T14:16:04.725Z,92.20
2023-08-17T14:18:31.688Z,92.20
2023-08-17T14:20:58.895Z,92.20
2023-08-17T14:23:25.860Z,92.20
2023-08-17T14:25:53.202Z,92.20
2023-08-17T14:28:20.894Z,92.20
2023-08-17T14:30:52.524Z,92.20
2023-08-17T14:33:20.398Z,92.20
2023-08-17T14:35:47.780Z,92.20
2023-08-17T14:38:14.794Z,92.20
2023-08-17T14:40:46.192Z,92.20
2023-08-17T14:43:14.942Z,92.20
2023-08-17T14:45:43.004Z,92.20
2023-08-17T14:48:10.454Z,92.20
2023-08-17T14:50:37.960Z,92.20
2023-08-17T14:53:08.180Z,92.20
2023-08-17T14:55:35.933Z,92.20
2023-08-17T14:58:03.549Z,92.20
2023-08-17T15:00:33.716Z,92.20
2023-08-17T15:03:01.887Z,92.20
2023-08-17T15:05:29.589Z,92.20
2023-08-17T15:07:57.105Z,92.20
2023-08-17T15:10:24.720Z,92.20
2023-08-17T15:12:51.831Z,92.20
2023-08-17T15:15:21.354Z,92.20
2023-08-17T15:17:48.534Z,92.20
2023-08-17T15:20:15.529Z,92.20
2023-08-17T15:22:42.331Z,92.20
2023-08-17T15:25:09.378Z,92.20
2023-08-17T15:27:36.328Z,92.20
2023-08-17T15:30:03.420Z,92.20
2023-08-17T15:32:31.450Z,92.20
2023-08-17T15:34:58.424Z,92.20
2023-08-17T15:37:26.403Z,92.20
2023-08-17T15:39:53.707Z,92.20
2023-08-17T15:42:20.581Z,92.20
2023-08-17T15:44:47.556Z,92.20
2023-08-17T15:47:14.485Z,92.20
2023-08-17T15:49:41.300Z,92.20
2023-08-17T15:52:10.346Z,92.20
2023-08-17T15:54:38.858Z,92.20
2023-08-17T15:57:06.106Z,92.20
2023-08-17T15:59:33.322Z,92.20
2023-08-17T16:02:00.405Z,92.20
2023-08-17T16:04:27.253Z,92.20
2023-08-17T16:06:54.496Z,92.20
2023-08-17T16:09:24.491Z,92.20
2023-08-17T16:11:51.453Z,92.20
2023-08-17T16:14:18.344Z,92.20
2023-08-17T16:16:45.259Z,92.20
2023-08-17T16:19:12.864Z,92.20
2023-08-17T16:21:39.802Z,92.20
2023-08-17T16:24:06.784Z,92.20
2023-08-17T16:26:35.353Z,92.20
2023-08-17T16:29:02.576Z,92.20
2023-08-17T16:31:29.632Z,92.20
2023-08-17T16:33:56.771Z,92.20
2023-08-17T16:36:23.747Z,92.20
2023-08-17T16:38:55.692Z,92.20
2023-08-17T16:41:22.841Z,92.20
2023-08-17T16:43:53.103Z,92.20
2023-08-17T16:46:20.181Z,92.20
2023-08-17T16:48:47.128Z,92.20
2023-08-17T16:51:14.202Z,92.20
2023-08-17T16:53:44.339Z,92.20
2023-08-17T16:56:11.527Z,92.20
2023-08-17T16:58:39.936Z,92.20
2023-08-17T17:01:14.395Z,92.20
2023-08-17T17:03:43.529Z,92.20
2023-08-17T17:06:12.018Z,92.20
2023-08-17T17:08:38.899Z,92.20
2023-08-17T17:11:06.119Z,92.20
2023-08-17T17:13:35.561Z,92.20
2023-08-17T17:16:02.816Z,92.20
2023-08-17T17:18:29.911Z,92.20
2023-08-17T17:20:56.745Z,92.20
2023-08-17T17:23:23.639Z,92.20
2023-08-17T17:25:50.882Z,92.20
2023-08-17T17:28:17.762Z,92.20
2023-08-17T17:30:44.913Z,92.20
2023-08-17T17:33:12.000Z,92.20
2023-08-17T17:35:38.780Z,92.20
2023-08-17T17:38:05.872Z,92.20
2023-08-17T17:40:32.713Z,92.20
2023-08-17T17:42:59.549Z,92.20
2023-08-17T17:45:26.398Z,92.20
2023-08-17T17:47:53.285Z,92.20
2023-08-17T17:50:20.217Z,92.20
2023-08-17T17:52:48.690Z,92.20
2023-08-17T17:55:16.161Z,92.20
2023-08-17T17:57:43.055Z,92.20
2023-08-17T18:00:11.451Z,92.20
2023-08-17T18:02:38.616Z,92.20
2023-08-17T18:05:06.064Z,92.20
2023-08-17T18:07:33.220Z,92.20
2023-08-17T18:10:04.291Z,92.20
2023-08-17T18:12:34.083Z,92.20
2023-08-17T18:15:01.068Z,92.20
2023-08-17T18:17:28.213Z,92.20
2023-08-17T18:19:55.481Z,92.20
2023-08-17T18:22:22.395Z,92.20
2023-08-17T18:24:49.233Z,92.20
2023-08-17T18:27:16.353Z,92.20
2023-08-17T18:29:43.429Z,92.20
2023-08-17T18:32:10.506Z,92.20
2023-08-17T18:34:37.332Z,92.20
2023-08-17T18:37:04.352Z,92.20
2023-08-17T18:39:31.175Z,92.20
2023-08-17T18:41:58.226Z,92.20
2023-08-17T18:44:25.158Z,92.20
2023-08-17T18:46:51.998Z,92.20
2023-08-17T18:49:18.804Z,92.20
2023-08-17T18:51:45.667Z,92.20
2023-08-17T18:54:12.560Z,92.20
2023-08-17T18:56:40.188Z,92.20
2023-08-17T18:59:07.250Z,92.20
2023-08-17T19:01:34.180Z,92.20
2023-08-17T19:04:01.047Z,92.20
2023-08-17T19:06:27.982Z,92.20
2023-08-17T19:08:54.881Z,92.20
2023-08-17T19:11:21.728Z,92.20
2023-08-17T19:13:48.669Z,92.20
2023-08-17T19:16:15.958Z,92.20
2023-08-17T19:18:43.087Z,92.20
2023-08-17T19:21:10.004Z,92.20
2023-08-17T19:23:36.947Z,92.20
2023-08-17T19:26:03.920Z,92.20
2023-08-17T19:28:31.008Z,92.20
2023-08-17T19:30:57.885Z,92.20
2023-08-17T19:33:24.904Z,92.20
2023-08-17T19:35:51.890Z,92.20
2023-08-17T19:38:18.920Z,92.20
2023-08-17T19:40:47.669Z,92.20
2023-08-17T19:43:14.787Z,92.20
2023-08-17T19:45:42.509Z,92.20
2023-08-17T19:48:10.966Z,92.20
2023-08-17T19:50:37.828Z,92.20
2023-08-17T19:53:04.900Z,92.20
2023-08-17T19:55:31.765Z,92.20
2023-08-17T19:57:58.650Z,92.20
2023-08-17T20:00:25.530Z,92.20
2023-08-17T20:02:55.993Z,92.20
2023-08-17T20:05:24.234Z,92.20
2023-08-17T20:07:51.191Z,92.20
2023-08-17T20:10:18.164Z,92.20
2023-08-17T20:12:45.195Z,92.20
2023-08-17T20:15:12.183Z,92.20
2023-08-17T20:17:39.729Z,92.20
2023-08-17T20:20:11.330Z,92.20
2023-08-17T20:22:38.216Z,92.20
2023-08-17T20:25:07.061Z,92.20
2023-08-17T20:27:33.953Z,92.20
2023-08-17T20:30:02.052Z,92.20
2023-08-17T20:32:28.856Z,92.20
2023-08-17T20:34:56.994Z,92.20
2023-08-17T20:37:23.988Z,92.20
2023-08-17T20:39:50.882Z,92.20
2023-08-17T20:42:17.698Z,92.20
2023-08-17T20:44:45.070Z,92.20
2023-08-17T20:47:12.257Z,92.20
2023-08-17T20:49:41.508Z,92.20
2023-08-17T20:52:09.902Z,92.20
2023-08-17T20:54:38.175Z,92.20
2023-08-17T20:57:05.302Z,92.20
2023-08-17T20:59:33.019Z,92.20
2023-08-17T21:01:59.958Z,92.20
2023-08-17T21:04:26.908Z,92.20
2023-08-17T21:06:53.804Z,92.20
2023-08-17T21:09:22.181Z,92.20
2023-08-17T21:11:49.276Z,92.20
2023-08-17T21:14:16.113Z,92.20
2023-08-17T21:16:43.425Z,92.20
2023-08-17T21:19:10.401Z,92.20
2023-08-17T21:21:37.248Z,92.20
2023-08-17T21:24:04.300Z,92.20
2023-08-17T21:26:31.353Z,92.20
2023-08-17T21:28:58.179Z,92.20
2023-08-17T21:31:25.602Z,92.20
2023-08-17T21:33:52.604Z,92.20
2023-08-17T21:36:19.446Z,92.20
2023-08-17T21:38:47.845Z,92.20
2023-08-17T21:41:14.741Z,92.20
2023-08-17T21:43:41.582Z,92.20
2023-08-17T21:46:08.682Z,92.20
2023-08-17T21:48:35.510Z,92.20
2023-08-17T21:51:03.447Z,92.20
2023-08-17T21:53:30.276Z,92.20
2023-08-17T21:55:57.410Z,92.20
2023-08-17T21:58:24.359Z,92.20
2023-08-17T22:00:51.258Z,92.20
2023-08-17T22:03:18.460Z,92.20
2023-08-17T22:05:46.848Z,92.20
2023-08-17T22:08:14.684Z,92.20
2023-08-17T22:10:43.208Z,92.20
2023-08-17T22:13:10.254Z,92.20
2023-08-17T22:15:37.158Z,92.20
2023-08-17T22:18:04.324Z,92.20
2023-08-17T22:20:31.174Z,92.20
2023-08-17T22:22:58.030Z,92.20
2023-08-17T22:25:24.985Z,92.20
2023-08-17T22:27:51.765Z,92.20
2023-08-17T22:30:18.782Z,92.20
2023-08-17T22:32:46.951Z,92.20
2023-08-17T22:35:13.942Z,92.20
2023-08-17T22:37:40.799Z,92.20
2023-08-17T22:40:08.208Z,92.20
2023-08-17T22:42:35.181Z,92.20
2023-08-17T22:45:02.552Z,92.20
2023-08-17T22:47:31.501Z,92.20
2023-08-17T22:49:58.716Z,92.20
2023-08-17T22:52:25.686Z,92.20
2023-08-17T22:54:52.780Z,92.20
2023-08-17T22:57:19.794Z,92.20
2023-08-17T22:59:47.012Z,92.20
2023-08-17T23:02:13.842Z,92.20
2023-08-17T23:04:40.681Z,92.20
2023-08-17T23:07:07.619Z,92.20
2023-08-17T23:09:36.773Z,92.20
2023-08-17T23:12:07.302Z,92.20
2023-08-17T23:14:35.560Z,92.20
2023-08-17T23:17:02.620Z,92.20
2023-08-17T23:19:29.753Z,92.20
2023-08-17T23:21:56.667Z,92.20
2023-08-17T23:24:23.675Z,92.20
2023-08-17T23:26:50.596Z,92.20
2023-08-17T23:29:17.742Z,92.20
2023-08-17T23:31:48.089Z,92.20
2023-08-17T23:34:14.968Z,92.20
2023-08-17T23:36:41.816Z,92.20
2023-08-17T23:39:08.685Z,92.20
2023-08-17T23:41:35.710Z,92.20
2023-08-17T23:44:02.564Z,92.20
2023-08-17T23:46:29.481Z,92.20
2023-08-17T23:48:56.496Z,92.20
2023-08-17T23:51:23.488Z,92.20
2023-08-17T23:53:50.450Z,92.20
2023-08-17T23:56:17.591Z,92.20
2023-08-17T23:58:44.685Z,92.20
